createdAt,value
2018-10-02T00:01:48.321Z,12.00
2018-10-02T00:04:16.394Z,12.10
2018-10-02T00:06:44.433Z,12.10
2018-10-02T00:09:12.456Z,12.10
2018-10-02T00:11:40.616Z,12.00
2018-10-02T00:14:08.702Z,12.00
2018-10-02T00:16:36.731Z,11.90
2018-10-02T00:19:05.070Z,12.00
2018-10-02T00:21:33.135Z,12.00
2018-10-02T00:24:01.158Z,12.00
2018-10-02T00:26:29.190Z,12.10
2018-10-02T00:28:57.226Z,12.00
2018-10-02T00:31:25.274Z,12.00
2018-10-02T00:33:53.296Z,12.10
2018-10-02T00:36:21.329Z,12.00
2018-10-02T00:38:49.360Z,11.90
2018-10-02T00:41:17.382Z,11.80
2018-10-02T00:43:45.397Z,11.80
2018-10-02T00:46:13.430Z,11.90
2018-10-02T00:48:41.500Z,11.80
2018-10-02T00:51:09.573Z,11.80
2018-10-02T00:53:37.660Z,11.80
2018-10-02T00:56:05.713Z,11.80
2018-10-02T00:58:33.738Z,11.80
2018-10-02T01:01:01.763Z,11.70
2018-10-02T01:03:29.915Z,11.70
2018-10-02T01:05:58.024Z,11.60
2018-10-02T01:08:26.041Z,11.60
2018-10-02T01:10:54.037Z,11.80
2018-10-02T01:13:22.092Z,11.70
2018-10-02T01:15:50.121Z,11.80
2018-10-02T01:18:18.151Z,11.90
2018-10-02T01:20:46.186Z,11.90
2018-10-02T01:23:14.234Z,11.90
2018-10-02T01:25:42.369Z,11.80
2018-10-02T01:28:10.429Z,11.90
2018-10-02T01:30:38.445Z,11.90
2018-10-02T01:33:06.781Z,12.10
2018-10-02T01:35:34.849Z,12.10
2018-10-02T01:38:02.868Z,12.00
2018-10-02T01:40:30.982Z,12.00
2018-10-02T01:42:59.125Z,11.90
2018-10-02T01:45:27.155Z,12.10
2018-10-02T01:47:55.160Z,12.20
2018-10-02T01:50:23.286Z,12.20
2018-10-02T01:52:51.290Z,12.10
2018-10-02T01:55:19.368Z,12.20
2018-10-02T01:57:47.397Z,12.20
2018-10-02T02:00:15.454Z,12.00
2018-10-02T02:02:43.513Z,12.10
2018-10-02T02:05:11.619Z,12.10
2018-10-02T02:07:39.829Z,12.20
2018-10-02T02:10:07.905Z,12.30
2018-10-02T02:12:35.916Z,12.40
2018-10-02T02:15:04.392Z,12.40
2018-10-02T02:17:32.587Z,12.50
2018-10-02T02:20:00.641Z,12.50
2018-10-02T02:22:28.713Z,12.60
2018-10-02T02:24:56.798Z,12.60
2018-10-02T02:27:24.861Z,12.60
2018-10-02T02:29:53.169Z,12.60
2018-10-02T02:32:21.234Z,12.60
2018-10-02T02:34:49.269Z,12.60
2018-10-02T02:37:17.316Z,12.50
2018-10-02T02:39:45.417Z,12.50
2018-10-02T02:42:13.455Z,12.60
2018-10-02T02:44:41.466Z,12.50
2018-10-02T02:47:09.539Z,12.40
2018-10-02T02:49:37.570Z,12.30
2018-10-02T02:52:05.835Z,12.20
2018-10-02T02:54:33.865Z,12.30
2018-10-02T02:57:01.893Z,12.30
2018-10-02T02:59:29.998Z,12.30
2018-10-02T03:01:58.113Z,12.40
2018-10-02T03:04:26.141Z,12.50
2018-10-02T03:06:54.173Z,12.50
2018-10-02T03:09:22.198Z,12.50
2018-10-02T03:11:50.237Z,12.40
2018-10-02T03:14:18.255Z,12.50
2018-10-02T03:16:46.285Z,12.40
2018-10-02T03:19:14.385Z,12.50
2018-10-02T03:21:42.524Z,12.40
2018-10-02T03:24:10.445Z,12.30
2018-10-02T03:26:38.452Z,12.20
2018-10-02T03:29:06.758Z,12.20
2018-10-02T03:31:34.821Z,12.10
2018-10-02T03:34:02.828Z,12.10
2018-10-02T03:36:30.902Z,12.10
2018-10-02T03:38:58.963Z,12.00
2018-10-02T03:41:27.133Z,12.00
2018-10-02T03:43:55.142Z,12.00
2018-10-02T03:46:23.244Z,11.90
2018-10-02T03:48:51.345Z,11.90
2018-10-02T03:51:19.329Z,11.90
2018-10-02T03:53:47.373Z,11.90
2018-10-02T03:56:15.395Z,11.90
2018-10-02T03:58:43.438Z,11.90
2018-10-02T04:01:11.497Z,12.00
2018-10-02T04:03:39.637Z,12.00
2018-10-02T04:06:07.681Z,12.00
2018-10-02T04:08:35.770Z,12.10
2018-10-02T04:11:03.804Z,12.10
2018-10-02T04:13:31.914Z,12.10
2018-10-02T04:15:59.922Z,12.10
2018-10-02T04:18:28.044Z,12.20
2018-10-02T04:20:56.165Z,12.10
2018-10-02T04:23:24.213Z,12.20
2018-10-02T04:25:52.254Z,12.10
2018-10-02T04:28:20.300Z,12.20
2018-10-02T04:30:48.318Z,12.20
2018-10-02T04:33:16.357Z,12.20
2018-10-02T04:35:44.511Z,12.10
2018-10-02T04:38:12.590Z,12.10
2018-10-02T04:40:40.635Z,12.20
2018-10-02T04:43:08.701Z,12.20
2018-10-02T04:45:36.773Z,12.20
2018-10-02T04:48:04.929Z,12.10
2018-10-02T04:50:33.053Z,12.00
2018-10-02T04:53:01.218Z,11.90
2018-10-02T04:55:29.277Z,11.90
2018-10-02T04:57:57.337Z,11.90
2018-10-02T05:00:25.610Z,11.90
2018-10-02T05:02:53.669Z,12.00
2018-10-02T05:05:21.704Z,12.10
2018-10-02T05:07:49.754Z,12.10
2018-10-02T05:10:17.786Z,12.10
2018-10-02T05:12:45.842Z,12.10
2018-10-02T05:15:13.864Z,12.10
2018-10-02T05:17:41.910Z,12.10
2018-10-02T05:20:10.149Z,12.10
2018-10-02T05:22:38.198Z,12.20
2018-10-02T05:25:06.260Z,12.30
2018-10-02T05:27:34.348Z,12.30
2018-10-02T05:30:02.407Z,12.40
2018-10-02T05:32:30.449Z,12.40
2018-10-02T05:34:58.797Z,12.30
2018-10-02T05:37:26.787Z,12.20
2018-10-02T05:39:54.823Z,12.10
2018-10-02T05:42:22.934Z,12.10
2018-10-02T05:44:50.957Z,12.10
2018-10-02T05:47:19.017Z,12.10
2018-10-02T05:49:47.354Z,12.10
2018-10-02T05:52:15.400Z,12.10
2018-10-02T05:54:43.402Z,12.10
2018-10-02T05:57:18.281Z,12.20
2018-10-02T05:59:46.398Z,12.30
2018-10-02T06:02:14.469Z,12.40
2018-10-02T06:04:42.539Z,12.50
2018-10-02T06:07:10.563Z,12.50
2018-10-02T06:09:38.683Z,12.40
2018-10-02T06:12:06.982Z,12.50
2018-10-02T06:14:34.970Z,12.60
2018-10-02T06:17:03.209Z,12.60
2018-10-02T06:19:31.283Z,12.70
2018-10-02T06:21:59.326Z,12.70
2018-10-02T06:24:27.376Z,12.70
2018-10-02T06:26:55.457Z,12.70
2018-10-02T06:29:23.540Z,12.90
2018-10-02T06:31:51.697Z,12.90
2018-10-02T06:34:19.762Z,12.90
2018-10-02T06:36:47.809Z,12.80
2018-10-02T06:39:15.839Z,12.80
2018-10-02T06:41:43.875Z,12.80
2018-10-02T06:44:11.907Z,12.70
2018-10-02T06:46:39.943Z,12.50
2018-10-02T06:49:07.996Z,12.60
2018-10-02T06:51:36.088Z,12.50
2018-10-02T06:54:04.112Z,12.60
2018-10-02T06:56:32.287Z,12.60
2018-10-02T06:59:00.277Z,12.50
2018-10-02T07:01:28.312Z,12.60
2018-10-02T07:03:56.322Z,12.50
2018-10-02T07:06:24.387Z,12.40
2018-10-02T07:08:52.484Z,12.40
2018-10-02T07:11:20.562Z,12.30
2018-10-02T07:13:48.622Z,12.30
2018-10-02T07:16:16.678Z,12.20
2018-10-02T07:18:44.925Z,12.10
2018-10-02T07:21:12.961Z,12.10
2018-10-02T07:23:41.028Z,12.10
2018-10-02T07:26:09.196Z,12.00
2018-10-02T07:28:37.192Z,11.90
2018-10-02T07:31:05.772Z,11.90
2018-10-02T07:33:33.802Z,11.90
2018-10-02T07:36:01.839Z,12.00
2018-10-02T07:38:29.989Z,12.10
2018-10-02T07:40:58.887Z,12.10
2018-10-02T07:43:27.284Z,12.20
2018-10-02T07:45:55.368Z,12.30
2018-10-02T07:48:23.467Z,12.30
2018-10-02T07:50:51.640Z,12.40
2018-10-02T07:53:19.666Z,12.40
2018-10-02T07:55:47.761Z,12.50
2018-10-02T07:58:15.827Z,12.60
2018-10-02T08:00:43.905Z,12.60
2018-10-02T08:03:12.894Z,12.60
2018-10-02T08:05:41.021Z,12.70
2018-10-02T08:08:08.998Z,12.70
2018-10-02T08:10:37.049Z,12.80
2018-10-02T08:13:05.101Z,12.80
2018-10-02T08:15:33.148Z,12.90
2018-10-02T08:18:01.307Z,12.80
2018-10-02T08:20:29.290Z,12.80
2018-10-02T08:22:57.573Z,13.00
2018-10-02T08:25:25.611Z,12.90
2018-10-02T08:27:53.654Z,12.90
2018-10-02T08:30:21.744Z,12.90
2018-10-02T08:32:49.745Z,12.90
2018-10-02T08:35:17.869Z,12.90
2018-10-02T08:37:45.912Z,12.90
2018-10-02T08:40:13.961Z,13.00
2018-10-02T08:42:41.969Z,13.00
2018-10-02T08:45:10.031Z,13.20
2018-10-02T08:47:38.146Z,13.20
2018-10-02T08:50:06.319Z,13.30
2018-10-02T08:52:34.390Z,13.20
2018-10-02T08:55:02.493Z,13.20
2018-10-02T08:57:30.594Z,13.10
2018-10-02T08:59:58.761Z,13.00
2018-10-02T09:02:26.822Z,13.00
2018-10-02T09:04:54.926Z,13.10
2018-10-02T09:07:22.964Z,12.90
2018-10-02T09:09:51.057Z,12.90
2018-10-02T09:12:19.053Z,12.70
2018-10-02T09:14:47.092Z,12.70
2018-10-02T09:17:15.134Z,12.70
2018-10-02T09:19:43.252Z,12.60
2018-10-02T09:22:11.307Z,12.60
2018-10-02T09:24:39.420Z,12.70
2018-10-02T09:27:07.474Z,12.60
2018-10-02T09:29:35.509Z,12.50
2018-10-02T09:32:03.561Z,12.60
2018-10-02T09:34:31.725Z,12.50
2018-10-02T09:36:59.944Z,12.50
2018-10-02T09:39:28.002Z,12.60
2018-10-02T09:41:56.116Z,12.60
2018-10-02T09:44:24.151Z,12.60
2018-10-02T09:46:52.278Z,12.70
2018-10-02T09:49:20.350Z,12.80
2018-10-02T09:51:48.500Z,12.80
2018-10-02T09:54:16.520Z,12.80
2018-10-02T09:56:44.690Z,12.80
2018-10-02T09:59:12.736Z,12.80
2018-10-02T10:01:40.785Z,12.70
2018-10-02T10:04:09.008Z,12.70
2018-10-02T10:06:36.997Z,12.80
2018-10-02T10:09:06.610Z,12.80
2018-10-02T10:11:34.756Z,12.80
2018-10-02T10:14:02.891Z,12.90
2018-10-02T10:16:31.014Z,12.90
2018-10-02T10:18:59.029Z,12.80
2018-10-02T10:21:27.045Z,12.90
2018-10-02T10:23:55.112Z,12.90
2018-10-02T10:26:23.198Z,12.90
2018-10-02T10:28:51.260Z,12.90
2018-10-02T10:31:19.250Z,12.90
2018-10-02T10:33:48.084Z,13.00
2018-10-02T10:36:16.109Z,13.00
2018-10-02T10:38:44.185Z,13.00
2018-10-02T10:41:12.294Z,13.00
2018-10-02T10:43:40.322Z,13.00
2018-10-02T10:46:08.448Z,13.10
2018-10-02T10:48:36.518Z,13.10
2018-10-02T10:51:04.605Z,13.10
2018-10-02T10:53:32.714Z,13.10
2018-10-02T10:56:00.816Z,13.10
2018-10-02T10:58:28.913Z,13.10
2018-10-02T11:00:56.905Z,13.10
2018-10-02T11:03:25.054Z,13.10
2018-10-02T11:05:53.129Z,13.20
2018-10-02T11:08:21.292Z,13.20
2018-10-02T11:10:49.405Z,13.20
2018-10-02T11:13:17.537Z,13.20
2018-10-02T11:15:45.666Z,13.20
2018-10-02T11:18:13.701Z,13.30
2018-10-02T11:20:41.742Z,13.20
2018-10-02T11:23:09.824Z,13.20
2018-10-02T11:25:38.098Z,13.30
2018-10-02T11:28:06.108Z,13.30
2018-10-02T11:30:34.212Z,13.30
2018-10-02T11:33:02.290Z,13.40
2018-10-02T11:35:30.432Z,13.30
2018-10-02T11:37:58.446Z,13.40
2018-10-02T11:40:26.473Z,13.40
2018-10-02T11:43:01.253Z,13.50
2018-10-02T11:45:29.300Z,13.40
2018-10-02T11:47:57.386Z,13.50
2018-10-02T11:50:25.646Z,13.50
2018-10-02T11:52:53.728Z,13.60
2018-10-02T11:55:22.454Z,13.60
2018-10-02T11:57:50.706Z,13.60
2018-10-02T12:00:18.775Z,13.70
2018-10-02T12:02:47.009Z,13.70
2018-10-02T12:05:15.080Z,13.60
2018-10-02T12:07:43.117Z,13.60
2018-10-02T12:10:11.214Z,13.70
2018-10-02T12:12:39.302Z,13.70
2018-10-02T12:15:07.419Z,13.80
2018-10-02T12:17:35.446Z,13.90
2018-10-02T12:20:03.866Z,13.90
2018-10-02T12:22:31.861Z,14.00
2018-10-02T12:24:59.903Z,14.00
2018-10-02T12:27:27.951Z,14.00
2018-10-02T12:29:56.384Z,14.00
2018-10-02T12:32:24.518Z,14.00
2018-10-02T12:34:52.581Z,14.00
2018-10-02T12:37:20.695Z,14.10
2018-10-02T12:39:48.821Z,14.00
2018-10-02T12:42:16.973Z,14.00
2018-10-02T12:44:45.180Z,14.10
2018-10-02T12:47:13.445Z,14.20
2018-10-02T12:49:41.770Z,14.20
2018-10-02T12:52:09.841Z,14.40
2018-10-02T12:54:37.998Z,14.40
2018-10-02T12:57:06.330Z,14.40
2018-10-02T12:59:34.946Z,14.40
2018-10-02T13:02:03.037Z,14.30
2018-10-02T13:04:31.043Z,14.30
2018-10-02T13:06:59.221Z,14.30
2018-10-02T13:09:27.339Z,14.30
2018-10-02T13:11:55.488Z,14.30
2018-10-02T13:14:23.562Z,14.30
2018-10-02T13:16:51.632Z,14.40
2018-10-02T13:19:19.885Z,14.40
2018-10-02T13:21:47.942Z,14.40
2018-10-02T13:24:16.061Z,14.50
2018-10-02T13:26:44.117Z,14.50
2018-10-02T13:29:12.214Z,14.50
2018-10-02T13:31:40.344Z,14.40
2018-10-02T13:34:08.455Z,14.50
2018-10-02T13:36:36.485Z,14.50
2018-10-02T13:39:06.819Z,14.50
2018-10-02T13:41:34.888Z,14.50
2018-10-02T13:44:02.968Z,14.40
2018-10-02T13:46:31.033Z,14.50
2018-10-02T13:48:59.342Z,14.60
2018-10-02T13:51:27.393Z,14.70
2018-10-02T13:53:55.473Z,14.70
2018-10-02T13:56:23.567Z,14.80
2018-10-02T13:58:51.612Z,14.80
2018-10-02T14:01:19.667Z,14.90
2018-10-02T14:03:47.824Z,15.10
2018-10-02T14:06:15.938Z,15.00
2018-10-02T14:08:43.989Z,15.00
2018-10-02T14:11:12.553Z,14.90
2018-10-02T14:13:40.591Z,15.00
2018-10-02T14:16:08.655Z,15.10
2018-10-02T14:18:36.753Z,15.10
2018-10-02T14:21:04.827Z,15.20
2018-10-02T14:23:32.911Z,15.30
2018-10-02T14:26:00.961Z,15.40
2018-10-02T14:28:29.019Z,15.40
2018-10-02T14:30:57.107Z,15.40
2018-10-02T14:33:25.174Z,15.50
2018-10-02T14:35:53.277Z,15.60
2018-10-02T14:38:21.374Z,15.70
2018-10-02T14:40:49.434Z,15.80
2018-10-02T14:43:17.547Z,15.80
2018-10-02T14:45:45.597Z,15.80
2018-10-02T14:48:13.653Z,15.70
2018-10-02T14:50:41.728Z,15.70
2018-10-02T14:53:09.852Z,15.80
2018-10-02T14:55:37.895Z,15.90
2018-10-02T14:58:06.035Z,16.00
2018-10-02T15:00:34.173Z,16.00
2018-10-02T15:03:03.037Z,16.00
2018-10-02T15:05:31.305Z,15.90
2018-10-02T15:07:59.352Z,16.00
2018-10-02T15:10:27.490Z,16.00
2018-10-02T15:12:55.531Z,16.00
2018-10-02T15:15:23.678Z,16.10
2018-10-02T15:17:51.841Z,16.10
2018-10-02T15:20:19.914Z,16.10
2018-10-02T15:22:48.172Z,16.10
2018-10-02T15:25:16.225Z,16.20
2018-10-02T15:27:44.376Z,16.20
2018-10-02T15:30:12.466Z,16.10
2018-10-02T15:32:40.556Z,16.20
2018-10-02T15:35:09.277Z,16.20
2018-10-02T15:37:37.452Z,16.20
2018-10-02T15:40:05.497Z,16.10
2018-10-02T15:42:33.600Z,16.20
2018-10-02T15:45:01.647Z,16.30
2018-10-02T15:47:29.972Z,16.30
2018-10-02T15:49:58.162Z,16.40
2018-10-02T15:52:26.221Z,16.40
2018-10-02T15:54:54.690Z,16.50
2018-10-02T15:57:22.837Z,16.60
2018-10-02T15:59:50.960Z,16.60
2018-10-02T16:02:19.025Z,16.60
2018-10-02T16:04:47.262Z,16.60
2018-10-02T16:07:15.774Z,16.70
2018-10-02T16:09:43.976Z,16.70
2018-10-02T16:12:12.004Z,16.60
2018-10-02T16:14:40.215Z,16.70
2018-10-02T16:17:08.282Z,16.70
2018-10-02T16:19:36.930Z,16.70
2018-10-02T16:22:05.064Z,16.70
2018-10-02T16:24:33.130Z,16.70
2018-10-02T16:27:01.277Z,16.70
2018-10-02T16:29:29.372Z,16.70
2018-10-02T16:31:57.513Z,16.70
2018-10-02T16:34:25.815Z,16.60
2018-10-02T16:36:53.948Z,16.60
2018-10-02T16:39:22.070Z,16.60
2018-10-02T16:41:50.141Z,16.60
2018-10-02T16:44:18.300Z,16.50
2018-10-02T16:46:46.382Z,16.50
2018-10-02T16:49:14.534Z,16.50
2018-10-02T16:51:42.709Z,16.40
2018-10-02T16:54:10.889Z,16.40
2018-10-02T16:56:38.964Z,16.40
2018-10-02T16:59:07.229Z,16.40
2018-10-02T17:01:35.378Z,16.30
2018-10-02T17:04:03.518Z,16.30
2018-10-02T17:06:31.664Z,16.30
2018-10-02T17:09:00.079Z,16.20
2018-10-02T17:11:28.181Z,16.10
2018-10-02T17:13:56.425Z,16.10
2018-10-02T17:16:24.653Z,16.00
2018-10-02T17:18:52.748Z,16.00
2018-10-02T17:21:20.868Z,15.80
2018-10-02T17:23:48.907Z,15.70
2018-10-02T17:26:17.120Z,15.70
2018-10-02T17:28:45.296Z,15.60
2018-10-02T17:31:13.338Z,15.50
2018-10-02T17:33:41.384Z,15.50
2018-10-02T17:36:09.518Z,15.50
2018-10-02T17:38:37.847Z,15.40
2018-10-02T17:41:06.027Z,15.40
2018-10-02T17:43:34.116Z,15.40
2018-10-02T17:46:02.214Z,15.30
2018-10-02T17:48:30.295Z,15.30
2018-10-02T17:50:58.371Z,15.30
2018-10-02T17:53:26.424Z,15.30
2018-10-02T17:55:54.478Z,15.20
2018-10-02T17:58:22.911Z,15.20
2018-10-02T18:00:51.070Z,15.20
2018-10-02T18:03:19.253Z,15.10
2018-10-02T18:05:49.614Z,15.10
2018-10-02T18:08:17.684Z,15.10
2018-10-02T18:10:45.908Z,15.10
2018-10-02T18:13:14.331Z,15.20
2018-10-02T18:15:42.904Z,15.10
2018-10-02T18:18:11.545Z,15.10
2018-10-02T18:20:39.768Z,15.10
2018-10-02T18:23:07.810Z,15.00
2018-10-02T18:25:36.009Z,15.00
2018-10-02T18:28:04.234Z,15.00
2018-10-02T18:30:33.103Z,15.00
2018-10-02T18:33:01.404Z,14.90
2018-10-02T18:35:29.955Z,14.90
2018-10-02T18:37:58.142Z,14.90
2018-10-02T18:40:26.430Z,14.90
2018-10-02T18:42:54.535Z,15.00
2018-10-02T18:45:22.961Z,14.90
2018-10-02T18:47:50.993Z,14.90
2018-10-02T18:50:19.105Z,14.80
2018-10-02T18:52:47.268Z,14.80
2018-10-02T18:55:15.683Z,14.70
2018-10-02T18:57:43.735Z,14.70
2018-10-02T19:00:11.961Z,14.70
2018-10-02T19:02:40.116Z,14.70
2018-10-02T19:05:08.315Z,14.90
2018-10-02T19:07:36.543Z,14.90
2018-10-02T19:10:04.804Z,14.90
2018-10-02T19:12:33.131Z,14.90
2018-10-02T19:15:01.232Z,14.80
2018-10-02T19:17:29.428Z,14.70
2018-10-02T19:19:57.663Z,14.70
2018-10-02T19:22:25.848Z,14.60
2018-10-02T19:24:53.993Z,14.60
2018-10-02T19:27:22.037Z,14.50
2018-10-02T19:29:50.254Z,14.60
2018-10-02T19:32:18.539Z,14.70
2018-10-02T19:34:46.639Z,14.70
2018-10-02T19:37:15.016Z,14.60
2018-10-02T19:39:43.081Z,14.60
2018-10-02T19:42:11.172Z,14.60
2018-10-02T19:44:39.352Z,14.60
2018-10-02T19:47:07.713Z,14.60
2018-10-02T19:49:36.046Z,14.50
2018-10-02T19:52:04.408Z,14.50
2018-10-02T19:54:32.603Z,14.50
2018-10-02T19:57:00.994Z,14.40
2018-10-02T19:59:29.358Z,14.40
2018-10-02T20:01:57.679Z,14.50
2018-10-02T20:04:26.056Z,14.50
2018-10-02T20:06:55.238Z,14.50
2018-10-02T20:09:23.527Z,14.50
2018-10-02T20:11:51.706Z,14.60
2018-10-02T20:14:21.514Z,14.50
2018-10-02T20:16:49.962Z,14.50
2018-10-02T20:19:18.128Z,14.50
2018-10-02T20:21:46.253Z,14.50
2018-10-02T20:24:15.218Z,14.50
2018-10-02T20:26:43.353Z,14.40
2018-10-02T20:29:12.986Z,14.40
2018-10-02T20:31:41.113Z,14.40
2018-10-02T20:34:09.454Z,14.40
2018-10-02T20:36:37.785Z,14.50
2018-10-02T20:39:07.743Z,14.50
2018-10-02T20:41:35.947Z,14.60
2018-10-02T20:44:04.084Z,14.60
2018-10-02T20:46:32.229Z,14.60
2018-10-02T20:49:00.512Z,14.60
2018-10-02T20:51:28.693Z,14.60
2018-10-02T20:53:56.862Z,14.70
2018-10-02T20:56:25.125Z,14.80
2018-10-02T20:58:53.193Z,14.80
2018-10-02T21:01:21.386Z,14.80
2018-10-02T21:03:49.645Z,14.70
2018-10-02T21:06:17.828Z,14.60
2018-10-02T21:08:45.893Z,14.70
2018-10-02T21:11:13.931Z,14.70
2018-10-02T21:13:41.992Z,14.60
2018-10-02T21:16:10.286Z,14.70
2018-10-02T21:18:38.407Z,14.70
2018-10-02T21:21:07.086Z,14.70
2018-10-02T21:23:35.246Z,14.80
2018-10-02T21:26:04.136Z,14.80
2018-10-02T21:28:32.181Z,14.80
2018-10-02T21:31:00.296Z,14.80
2018-10-02T21:33:28.425Z,14.80
2018-10-02T21:35:56.556Z,14.80
2018-10-02T21:38:24.800Z,14.70
2018-10-02T21:40:52.885Z,14.70
2018-10-02T21:43:20.998Z,14.70
2018-10-02T21:45:49.130Z,14.60
2018-10-02T21:48:17.257Z,14.50
2018-10-02T21:50:45.625Z,14.50
2018-10-02T21:53:13.675Z,14.50
2018-10-02T21:55:41.805Z,14.50
2018-10-02T21:58:10.144Z,14.50
2018-10-02T22:00:38.853Z,14.50
2018-10-02T22:03:07.236Z,14.60
2018-10-02T22:05:35.326Z,14.50
2018-10-02T22:08:03.499Z,14.60
2018-10-02T22:10:31.644Z,14.60
2018-10-02T22:12:59.796Z,14.60
2018-10-02T22:15:27.932Z,14.70
2018-10-02T22:17:55.932Z,14.70
2018-10-02T22:20:24.208Z,14.70
2018-10-02T22:22:52.239Z,14.70
2018-10-02T22:25:20.371Z,14.70
2018-10-02T22:27:48.487Z,14.70
2018-10-02T22:30:16.528Z,14.60
2018-10-02T22:32:44.622Z,14.60
2018-10-02T22:35:12.681Z,14.60
2018-10-02T22:37:40.745Z,14.60
2018-10-02T22:40:08.878Z,14.50
2018-10-02T22:42:36.883Z,14.50
2018-10-02T22:45:05.032Z,14.50
2018-10-02T22:47:33.093Z,14.40
2018-10-02T22:50:01.178Z,14.40
2018-10-02T22:52:29.194Z,14.40
2018-10-02T22:54:57.292Z,14.40
2018-10-02T22:57:25.365Z,14.40
2018-10-02T22:59:53.504Z,14.40
2018-10-02T23:02:21.546Z,14.40
2018-10-02T23:04:49.683Z,14.30
2018-10-02T23:07:17.733Z,14.30
2018-10-02T23:09:45.794Z,14.30
2018-10-02T23:12:13.977Z,14.30
2018-10-02T23:14:42.009Z,14.30
2018-10-02T23:17:10.219Z,14.20
2018-10-02T23:19:38.313Z,14.20
2018-10-02T23:22:06.625Z,14.20
2018-10-02T23:24:34.641Z,14.00
2018-10-02T23:27:02.748Z,13.90
2018-10-02T23:29:30.965Z,13.80
2018-10-02T23:31:59.020Z,13.80
2018-10-02T23:34:27.065Z,13.70
2018-10-02T23:36:55.155Z,13.80
2018-10-02T23:39:23.282Z,13.80
2018-10-02T23:41:51.366Z,14.00
2018-10-02T23:44:19.436Z,14.10
2018-10-02T23:46:47.477Z,14.10
2018-10-02T23:49:15.525Z,14.20
2018-10-02T23:51:43.625Z,14.30
2018-10-02T23:54:11.789Z,14.30
2018-10-02T23:56:40.037Z,14.20
2018-10-02T23:59:08.094Z,14.40
